Hopewell, Texas
Current Conditions -  °F | °C
As of 3:55 PM on Monday 20 Oct 2014 (Local Time) from KDKR Reporting Station
Clear Clear  
Wind Chill: 81°   Ceiling: Unl
Heat Index: 82°   Visibility: NA
Dew Point: 63°   Wind: 3mph
Humidity: 54%   Direction: 20°NNE
Pressure: 30.05"   Gusts: NA
Location:  31.2828°N, 95.4821°W
Report Text: KDKR 202055Z AUTO 02003KT CLR 27/17 A3005 RMK AO2
Loading
Personal Weather Stations






























Interactive Weather Map
Tropical Storm Tracking
New forecast layout! Learn more

10-Day Weather Forecast

Advertisements
Track Severe Weather on mobile